Novo Mesto, Slovenia
Current Conditions -  °F | °C
As of 11:00 AM on Sunday 25 Jan 2015 (Local Time) from LJCE Reporting Station
Broken Clouds Broken Clouds  
Wind Chill: 31°   Ceiling: 4500
Heat Index: 37°   Visibility: 6mi
Dew Point: 34°   Wind: 8mph
Humidity: 87%   Direction: 90°E
Pressure: 30.09"   Gusts: NA
Location:  45.81°N, 15.18°E
Report Text: LJCE 251000Z 09007KT 9999 FEW007 SCT023 BKN045 03/01 Q1019 RMK BLU
Loading
Personal Weather Stations






























Interactive Weather Map New forecast layout! Learn more

10-Day Weather Forecast

Advertisements
Track Severe Weather on mobile